Time;durP1;ratioP1;P1;durP2;ratioP2;P2;SDS_P1;SDS_P2;PMS_P1;PMS_P2;Temp;Humidity;BMP_temperature;BMP_pressure;BME280_temperature;BME280_humidity;BME280_pressure;Samples;Min_cycle;Max_cycle;Signal;HPM_P1;HPM_P2
2022/04/30 00:08:51;;;;;;;10.30;6.47;;;12.00;99.90;;;;;;21009733;28;20085;-78
2022/04/30 00:18:52;;;;;;;8.23;6.23;;;12.00;99.90;;;;;;20992434;28;20021;-76
2022/04/30 00:28:53;;;;;;;10.00;6.37;;;11.80;99.90;;;;;;20973288;28;20021;-76
2022/04/30 00:38:53;;;;;;;9.40;6.13;;;11.80;99.90;;;;;;20990521;28;20036;-76
2022/04/30 00:48:57;;;;;;;13.60;7.90;;;11.70;99.90;;;;;;20973989;28;20032;-75
2022/04/30 00:59:03;;;;;;;11.77;6.18;;;11.60;99.90;;;;;;20983093;28;20037;-75
2022/04/30 01:09:03;;;;;;;12.45;6.78;;;11.50;99.90;;;;;;20971231;28;20044;-75
2022/04/30 01:19:06;;;;;;;13.37;6.77;;;11.50;99.90;;;;;;20970483;28;20024;-76
2022/04/30 01:29:08;;;;;;;11.88;6.70;;;11.50;99.90;;;;;;20986250;28;20029;-76
2022/04/30 01:39:08;;;;;;;11.70;7.55;;;11.40;99.90;;;;;;20985736;28;20127;-76
2022/04/30 01:49:15;;;;;;;11.03;7.50;;;11.30;99.90;;;;;;21002885;28;20059;-76
2022/04/30 01:59:16;;;;;;;11.88;6.80;;;11.20;99.90;;;;;;21002196;28;20032;-77
2022/04/30 02:09:18;;;;;;;10.87;7.40;;;11.20;99.90;;;;;;20982656;28;20442;-76
2022/04/30 02:19:20;;;;;;;;;;;11.20;99.90;;;;;;20983115;28;20036;-76
2022/04/30 02:29:21;;;;;;;12.25;7.47;;;11.20;99.90;;;;;;21006563;28;19912;-76
2022/04/30 02:39:21;;;;;;;13.07;7.90;;;11.00;99.90;;;;;;20999311;28;20074;-77
2022/04/30 02:49:22;;;;;;;13.10;8.33;;;10.80;99.90;;;;;;20980163;28;20497;-77
2022/04/30 03:09:50;;;;;;;11.65;8.32;;;10.80;99.90;;;;;;20978703;28;20451;-76
2022/04/30 03:30:13;;;;;;;12.20;7.55;;;10.90;99.90;;;;;;20995191;28;20040;-76
2022/04/30 03:40:14;;;;;;;15.00;8.05;;;10.90;99.90;;;;;;20994387;28;20035;-76
2022/04/30 03:50:15;;;;;;;11.87;8.23;;;10.80;99.90;;;;;;20993705;28;20039;-76
2022/04/30 04:00:17;;;;;;;11.07;7.70;;;10.80;99.90;;;;;;20992994;28;20032;-76
2022/04/30 04:10:18;;;;;;;;;;;10.70;99.90;;;;;;21004828;28;20044;-76
2022/04/30 04:20:22;;;;;;;15.35;8.85;;;10.80;99.90;;;;;;20992113;28;20277;-76
2022/04/30 04:30:25;;;;;;;10.57;7.25;;;10.80;99.90;;;;;;20991293;28;20036;-76
2022/04/30 04:40:26;;;;;;;10.15;7.53;;;10.80;99.90;;;;;;20991458;28;20074;-76
2022/04/30 04:50:27;;;;;;;11.17;8.03;;;10.70;99.90;;;;;;20991200;28;20025;-75
2022/04/30 05:00:28;;;;;;;10.43;7.27;;;10.80;99.90;;;;;;20978433;28;20041;-76
2022/04/30 05:10:29;;;;;;;10.83;8.20;;;10.70;99.90;;;;;;21042810;22;20114;-75
2022/04/30 05:20:30;;;;;;;12.67;7.67;;;10.80;99.90;;;;;;21156558;28;20027;-75
2022/04/30 05:30:30;;;;;;;12.80;9.07;;;10.50;99.90;;;;;;21156159;28;20035;-74
2022/04/30 05:40:31;;;;;;;15.10;9.20;;;10.40;99.90;;;;;;21155867;28;20039;-74
2022/04/30 05:50:33;;;;;;;10.87;8.13;;;10.70;99.90;;;;;;21168319;28;20542;-74
2022/04/30 06:00:34;;;;;;;7.63;5.50;;;11.00;99.90;;;;;;21170028;28;20078;-74
2022/04/30 06:10:35;;;;;;;24.17;7.90;;;12.20;99.90;;;;;;21169106;28;20413;-75
2022/04/30 06:20:36;;;;;;;11.77;7.23;;;13.10;99.90;;;;;;21168364;28;20028;-74
2022/04/30 06:30:37;;;;;;;12.40;7.03;;;12.90;99.90;;;;;;21167469;28;20043;-75
2022/04/30 06:40:38;;;;;;;9.93;6.17;;;13.00;99.90;;;;;;21165297;28;20516;-74
2022/04/30 06:50:39;;;;;;;11.00;7.97;;;13.40;99.90;;;;;;21165980;28;20469;-75
2022/04/30 07:10:57;;;;;;;11.43;7.25;;;13.50;99.90;;;;;;21069682;28;20032;-74
2022/04/30 07:20:58;;;;;;;11.63;7.60;;;14.00;99.90;;;;;;21050100;28;20034;-74
2022/04/30 07:30:59;;;;;;;13.50;7.13;;;14.00;99.90;;;;;;21031573;28;20056;-74
2022/04/30 07:40:59;;;;;;;10.77;7.10;;;14.30;99.90;;;;;;21023782;28;20029;-74
2022/04/30 07:51:00;;;;;;;17.20;7.90;;;14.50;99.90;;;;;;21034361;28;20027;-74
2022/04/30 08:01:01;;;;;;;14.07;9.20;;;14.50;99.90;;;;;;21038677;28;20021;-74
2022/04/30 08:11:02;;;;;;;13.50;8.33;;;14.80;99.90;;;;;;21026311;28;20031;-76
2022/04/30 08:21:05;;;;;;;13.73;7.43;;;15.00;99.90;;;;;;21037898;28;20028;-75
2022/04/30 08:31:06;;;;;;;16.45;9.73;;;17.30;99.90;;;;;;21023274;28;20024;-74
2022/04/30 08:41:10;;;;;;;12.23;8.80;;;16.30;99.90;;;;;;21058846;28;20047;-74
2022/04/30 08:51:14;;;;;;;20.58;10.52;;;16.40;99.90;;;;;;21034059;28;20131;-74
2022/04/30 09:01:15;;;;;;;15.27;8.38;;;17.50;99.90;;;;;;21051109;28;20039;-74
2022/04/30 09:11:16;;;;;;;16.07;8.93;;;17.60;99.90;;;;;;21052736;28;20032;-74
2022/04/30 09:21:17;;;;;;;14.20;9.37;;;18.20;99.90;;;;;;21058962;28;20032;-74
2022/04/30 09:31:21;;;;;;;13.52;9.43;;;18.50;99.90;;;;;;21067643;28;20032;-74
2022/04/30 09:41:26;;;;;;;21.95;9.35;;;18.30;99.90;;;;;;21064814;28;20096;-74
2022/04/30 10:01:48;;;;;;;10.55;7.72;;;19.10;99.90;;;;;;21081441;28;20028;-74
2022/04/30 10:12:26;;;;;;;11.48;7.90;;;19.40;99.90;;;;;;21064291;28;20089;-75
2022/04/30 10:22:28;;;;;;;15.82;8.40;;;18.50;99.90;;;;;;21061437;28;20036;-74
2022/04/30 10:32:33;;;;;;;12.93;8.83;;;18.80;99.90;;;;;;21060509;28;20028;-74
2022/04/30 10:42:41;;;;;;;12.30;8.32;;;19.60;99.90;;;;;;21061723;28;20725;-73
2022/04/30 10:52:46;;;;;;;14.95;9.80;;;17.00;99.90;;;;;;21000784;28;20032;-73
2022/04/30 11:02:48;;;;;;;8.90;5.70;;;16.00;99.90;;;;;;21048603;28;20573;-72
2022/04/30 11:12:48;;;;;;;9.40;5.63;;;14.00;99.90;;;;;;21070865;22;20067;-73
2022/04/30 11:22:56;;;;;;;6.80;4.47;;;13.80;99.90;;;;;;21034215;28;20145;-74
2022/04/30 11:32:57;;;;;;;8.02;4.32;;;14.50;99.90;;;;;;21038638;28;20071;-73
2022/04/30 11:43:01;;;;;;;6.20;4.27;;;14.80;99.90;;;;;;21057221;28;20177;-73
2022/04/30 11:53:02;;;;;;;7.47;4.65;;;14.80;99.90;;;;;;21055648;28;20498;-72
2022/04/30 12:03:03;;;;;;;9.47;6.10;;;14.50;99.90;;;;;;21011410;28;20035;-72
2022/04/30 12:13:04;;;;;;;13.63;9.00;;;15.60;99.90;;;;;;21063912;28;20051;-73
2022/04/30 12:33:28;;;;;;;16.50;11.50;;;15.40;99.90;;;;;;21052762;28;20413;-72
2022/04/30 12:43:32;;;;;;;17.10;9.50;;;17.60;99.90;;;;;;21053891;28;20043;-73
2022/04/30 12:53:33;;;;;;;15.60;9.77;;;15.40;99.90;;;;;;21058611;28;20036;-73
2022/04/30 13:03:34;;;;;;;14.63;9.57;;;13.80;99.90;;;;;;21067610;28;20052;-73
2022/04/30 13:13:35;;;;;;;17.00;11.43;;;14.50;99.90;;;;;;20935004;28;20036;-71
2022/04/30 13:23:36;;;;;;;19.10;10.87;;;13.00;99.90;;;;;;21067745;28;20301;-72
2022/04/30 13:33:38;;;;;;;14.70;10.73;;;13.40;99.90;;;;;;21067236;28;20047;-73
2022/04/30 13:43:39;;;;;;;17.10;11.13;;;13.80;99.90;;;;;;21067574;28;20686;-75
2022/04/30 13:53:40;;;;;;;14.83;10.33;;;13.90;99.90;;;;;;21066121;28;20035;-74
2022/04/30 14:03:41;;;;;;;18.87;10.97;;;13.10;99.90;;;;;;21021029;28;20177;-74
2022/04/30 14:24:02;;;;;;;10.48;7.18;;;12.30;99.90;;;;;;21066273;28;20032;-73
2022/04/30 14:34:03;;;;;;;6.82;4.68;;;11.90;99.90;;;;;;21063845;28;20066;-73
2022/04/30 14:44:04;;;;;;;13.20;5.77;;;11.40;99.90;;;;;;21062442;28;20036;-75
2022/04/30 14:54:05;;;;;;;11.60;5.97;;;11.60;99.90;;;;;;21061524;28;20044;-74
2022/04/30 15:04:06;;;;;;;7.10;5.27;;;12.10;99.90;;;;;;21006311;28;20139;-74
2022/04/30 15:14:07;;;;;;;11.90;8.03;;;12.10;99.90;;;;;;21059561;28;20096;-75
2022/04/30 15:24:08;;;;;;;17.73;7.40;;;12.10;99.90;;;;;;21057319;28;20676;-75
2022/04/30 15:34:09;;;;;;;9.77;6.83;;;12.70;99.90;;;;;;21058712;28;20044;-79
2022/04/30 15:44:10;;;;;;;11.47;7.67;;;12.90;99.90;;;;;;20992926;28;20501;-78
2022/04/30 15:54:11;;;;;;;13.57;7.97;;;12.40;99.90;;;;;;20979978;28;20730;-77
2022/04/30 16:04:12;;;;;;;13.20;7.60;;;12.80;99.90;;;;;;21006267;28;20055;-77
2022/04/30 16:14:13;;;;;;;11.53;7.60;;;12.90;99.90;;;;;;21103773;28;20099;-78
2022/04/30 16:24:16;;;;;;;9.87;7.20;;;13.30;99.90;;;;;;21017424;28;20037;-78
2022/04/30 16:34:17;;;;;;;7.70;5.40;;;14.00;99.90;;;;;;20980730;28;20059;-78
2022/04/30 16:44:18;;;;;;;6.67;5.40;;;14.00;99.90;;;;;;20966394;28;20041;-77
2022/04/30 16:57:04;;;;;;;11.13;4.63;;;14.10;99.90;;;;;;21029993;28;20032;-78
2022/04/30 17:04:43;;;;;;;7.55;4.97;;;14.00;99.90;;;;;;20989234;28;20032;-77
2022/04/30 17:14:43;;;;;;;10.50;5.15;;;12.70;99.90;;;;;;21111766;22;20078;-71
2022/04/30 17:24:46;;;;;;;6.53;4.90;;;12.30;99.90;;;;;;21156450;28;20051;-72
2022/04/30 17:45:08;;;;;;;9.38;5.32;;;12.20;99.90;;;;;;21166638;28;20006;-70
2022/04/30 17:55:15;;;;;;;6.13;4.72;;;12.30;99.90;;;;;;21170363;28;20035;-72
2022/04/30 18:05:17;;;;;;;10.48;6.60;;;11.50;99.90;;;;;;21169772;28;20028;-71
2022/04/30 18:15:19;;;;;;;;;;;11.10;99.90;;;;;;21166694;28;20516;-72
2022/04/30 18:25:20;;;;;;;9.45;6.45;;;11.10;99.90;;;;;;21078409;28;19911;-71
2022/04/30 18:35:21;;;;;;;13.37;7.07;;;11.10;99.90;;;;;;21022567;28;20056;-70
2022/04/30 18:45:22;;;;;;;6.83;5.07;;;10.90;99.90;;;;;;20998448;28;20111;-71
2022/04/30 19:05:42;;;;;;;10.32;6.65;;;10.70;99.90;;;;;;20997164;28;20041;-71
2022/04/30 19:15:44;;;;;;;11.60;7.17;;;10.00;99.90;;;;;;20996004;28;20122;-73
2022/04/30 19:25:45;;;;;;;10.02;7.22;;;9.30;99.90;;;;;;20993694;28;20121;-72
2022/04/30 19:35:46;;;;;;;7.20;4.90;;;9.70;99.90;;;;;;20994229;28;20041;-71
2022/04/30 19:45:46;;;;;;;9.57;5.17;;;10.00;99.90;;;;;;21002309;28;20436;-71
2022/04/30 19:55:47;;;;;;;10.77;7.77;;;10.20;99.90;;;;;;21016011;28;20402;-72
2022/04/30 20:05:48;;;;;;;15.67;9.07;;;10.30;99.90;;;;;;21063054;28;20028;-72
2022/04/30 20:26:09;;;;;;;18.00;10.55;;;10.10;99.90;;;;;;21074666;28;20515;-71
2022/04/30 20:46:29;;;;;;;13.43;8.43;;;10.00;99.90;;;;;;21073751;28;20030;-71
2022/04/30 20:56:31;;;;;;;13.10;8.73;;;10.10;99.90;;;;;;21061868;28;20060;-71
2022/04/30 21:06:34;;;;;;;15.38;9.93;;;10.10;99.90;;;;;;21069948;28;20043;-71
2022/04/30 21:16:35;;;;;;;17.13;9.45;;;9.90;99.90;;;;;;21079661;28;20128;-71
2022/04/30 21:26:39;;;;;;;16.97;10.30;;;9.70;99.90;;;;;;21088538;28;20484;-71
2022/04/30 21:36:40;;;;;;;15.50;9.88;;;9.60;99.90;;;;;;21087482;28;20327;-72
2022/04/30 21:46:41;;;;;;;14.00;9.40;;;9.30;99.90;;;;;;21086827;28;20024;-72
2022/04/30 22:07:02;;;;;;;11.68;7.85;;;8.90;99.90;;;;;;21085262;28;20514;-72
2022/04/30 22:17:03;;;;;;;16.02;7.78;;;8.50;99.90;;;;;;21059968;28;20470;-72
2022/04/30 22:27:04;;;;;;;12.03;7.70;;;8.40;99.90;;;;;;21045703;28;20032;-73
2022/04/30 22:37:06;;;;;;;14.27;7.80;;;8.20;99.90;;;;;;21037627;28;20278;-72
2022/04/30 22:47:07;;;;;;;10.73;7.15;;;8.20;99.90;;;;;;21038990;28;20040;-73
2022/04/30 22:57:09;;;;;;;11.40;7.27;;;8.20;99.90;;;;;;21038704;28;20036;-72
2022/04/30 23:07:10;;;;;;;9.23;6.15;;;8.20;99.90;;;;;;21035753;28;20036;-72
2022/04/30 23:17:10;;;;;;;10.90;6.73;;;8.00;99.90;;;;;;21170244;22;20451;-78
2022/04/30 23:27:11;;;;;;;12.30;8.13;;;7.40;99.90;;;;;;21186296;28;20114;-78
2022/04/30 23:37:12;;;;;;;13.73;8.47;;;6.80;99.90;;;;;;21164005;28;20035;-77
2022/04/30 23:47:13;;;;;;;12.67;7.80;;;6.80;99.90;;;;;;21176808;28;20091;-79
2022/04/30 23:57:15;;;;;;;14.33;9.10;;;6.70;99.90;;;;;;21187523;28;20051;-78
